Time;durP1;ratioP1;P1;durP2;ratioP2;P2;SDS_P1;SDS_P2;PMS_P1;PMS_P2;Temp;Humidity;BMP_temperature;BMP_pressure;BME280_temperature;BME280_humidity;BME280_pressure;Samples;Min_cycle;Max_cycle;Signal;HPM_P1;HPM_P2
2024/01/09 00:00:09;;;;;;;7.72;4.05;;;;;;;-3.01;66.88;103237.09;5113939;28;20050;-67
2024/01/09 00:02:56;;;;;;;8.48;4.10;;;;;;;-3.12;67.07;103245.94;5101895;27;20121;-67
2024/01/09 00:05:48;;;;;;;9.52;3.65;;;;;;;-3.28;67.63;103240.91;5100606;28;20054;-67
2024/01/09 00:08:36;;;;;;;5.63;3.60;;;;;;;-3.13;67.99;103241.56;5086782;28;20044;-67
2024/01/09 00:11:24;;;;;;;6.38;3.60;;;;;;;-3.04;67.84;103240.00;5114682;28;20051;-71
2024/01/09 00:14:13;;;;;;;7.70;3.92;;;;;;;-3.06;67.04;103245.44;5114571;28;20039;-67
2024/01/09 00:17:01;;;;;;;6.18;3.97;;;;;;;-3.13;66.61;103243.38;5113816;27;20130;-66
2024/01/09 00:19:49;;;;;;;6.80;3.78;;;;;;;-3.08;66.99;103238.53;5099279;28;20048;-67
2024/01/09 00:22:37;;;;;;;6.60;3.60;;;;;;;-3.10;67.13;103232.47;5113942;27;20181;-68
2024/01/09 00:25:25;;;;;;;7.75;3.85;;;;;;;-3.02;66.85;103240.75;5109651;27;20043;-67
2024/01/09 00:28:13;;;;;;;6.20;3.50;;;;;;;-3.03;66.93;103239.91;5114702;28;20046;-67
2024/01/09 00:31:01;;;;;;;6.47;3.78;;;;;;;-3.11;66.60;103231.63;5087116;28;20066;-67
2024/01/09 00:33:50;;;;;;;5.70;3.50;;;;;;;-3.13;66.63;103233.56;5102962;27;20043;-66
2024/01/09 00:36:45;;;;;;;5.60;3.60;;;;;;;-3.08;67.39;103236.75;5099865;28;20130;-67
2024/01/09 00:39:33;;;;;;;5.93;3.78;;;;;;;-3.09;67.22;103247.53;5099498;28;20052;-67
2024/01/09 00:42:21;;;;;;;8.02;4.00;;;;;;;-3.12;67.42;103240.59;5079325;28;20166;-67
2024/01/09 00:45:10;;;;;;;7.30;3.85;;;;;;;-3.16;67.97;103246.28;5094929;28;20492;-67
2024/01/09 00:47:58;;;;;;;6.50;3.83;;;;;;;-3.23;67.19;103240.56;5099653;28;20510;-68
2024/01/09 00:50:46;;;;;;;7.13;3.88;;;;;;;-3.23;67.85;103235.25;5100251;28;20055;-67
2024/01/09 00:53:34;;;;;;;6.93;4.10;;;;;;;-3.36;67.59;103231.81;5094373;28;20052;-67
2024/01/09 00:56:22;;;;;;;5.68;3.42;;;;;;;-3.31;68.17;103235.84;5114455;27;20043;-67
2024/01/09 00:59:11;;;;;;;6.32;3.60;;;;;;;-3.25;67.83;103234.50;5113134;27;20043;-67
2024/01/09 01:01:59;;;;;;;7.93;3.97;;;;;;;-3.19;67.23;103228.72;5135097;27;20107;-68
2024/01/09 01:04:47;;;;;;;5.80;3.58;;;;;;;-3.26;67.18;103223.00;5107034;27;20048;-68
2024/01/09 01:07:35;;;;;;;6.85;3.80;;;;;;;-3.40;67.43;103225.03;5104599;28;20051;-67
2024/01/09 01:10:23;;;;;;;5.28;3.20;;;;;;;-3.34;68.44;103236.06;5114320;28;20456;-68
2024/01/09 01:13:11;;;;;;;6.45;3.30;;;;;;;-3.28;67.40;103230.25;5084173;28;20082;-66
2024/01/09 01:15:59;;;;;;;6.78;3.90;;;;;;;-3.34;67.36;103241.41;5112430;28;20051;-67
2024/01/09 01:18:47;;;;;;;6.88;3.63;;;;;;;-3.34;67.55;103237.88;5079558;28;20082;-67
2024/01/09 01:21:35;;;;;;;5.22;3.20;;;;;;;-3.37;68.20;103238.09;5079889;28;20129;-67
2024/01/09 01:24:23;;;;;;;6.22;3.60;;;;;;;-3.38;67.81;103239.09;5097011;28;20043;-68
2024/01/09 01:27:11;;;;;;;6.10;3.67;;;;;;;-3.30;67.77;103228.69;5111822;28;20035;-69
2024/01/09 01:29:59;;;;;;;5.90;3.63;;;;;;;-3.38;67.29;103234.59;5099237;28;20264;-68
2024/01/09 01:32:47;;;;;;;6.70;4.00;;;;;;;-3.51;67.55;103239.13;5099171;28;20415;-66
2024/01/09 01:35:35;;;;;;;5.88;3.70;;;;;;;-3.57;68.31;103240.47;5111914;28;20068;-68
2024/01/09 01:38:24;;;;;;;6.65;4.05;;;;;;;-3.54;68.79;103240.22;5099240;28;20140;-70
2024/01/09 01:41:12;;;;;;;6.70;3.72;;;;;;;-3.61;69.83;103238.97;5099235;28;20046;-67
2024/01/09 01:44:00;;;;;;;6.38;3.70;;;;;;;-3.51;68.93;103241.81;5112716;28;20507;-66
2024/01/09 01:46:49;;;;;;;4.53;2.92;;;;;;;-3.47;69.06;103230.81;5109307;27;20044;-67
2024/01/09 01:49:37;;;;;;;7.28;4.07;;;;;;;-3.62;69.50;103237.28;5079119;28;20044;-68
2024/01/09 01:52:27;;;;;;;7.13;4.00;;;;;;;-3.52;69.50;103224.97;5077960;27;20066;-66
2024/01/09 01:55:19;;;;;;;7.40;4.00;;;;;;;-3.50;68.71;103235.53;5111888;28;20054;-67
2024/01/09 01:58:07;;;;;;;8.23;3.92;;;;;;;-3.53;69.62;103236.59;5083805;28;20043;-67
2024/01/09 02:00:55;;;;;;;7.72;3.95;;;;;;;-3.51;69.85;103233.81;5087254;28;20089;-68
2024/01/09 02:03:43;;;;;;;7.05;3.97;;;;;;;-3.44;69.94;103235.03;5109636;28;20043;-67
2024/01/09 02:06:31;;;;;;;6.93;3.72;;;;;;;-3.47;69.11;103241.47;5113481;28;20043;-67
2024/01/09 02:09:19;;;;;;;8.80;4.00;;;;;;;-3.51;70.14;103242.69;5124817;27;20450;-67
2024/01/09 02:12:08;;;;;;;7.68;4.07;;;;;;;-3.48;70.25;103250.44;5079490;28;20047;-66
2024/01/09 02:14:56;;;;;;;8.27;3.97;;;;;;;-3.50;70.14;103244.38;5107152;28;20105;-68
2024/01/09 02:17:44;;;;;;;5.88;3.55;;;;;;;-3.46;70.03;103248.50;5112058;28;20047;-68
2024/01/09 02:20:32;;;;;;;5.90;3.63;;;;;;;-3.44;70.50;103233.25;5120711;27;20075;-69
2024/01/09 02:23:20;;;;;;;6.20;3.60;;;;;;;-3.50;69.91;103239.03;5097525;28;20043;-67
2024/01/09 02:26:09;;;;;;;4.57;2.97;;;;;;;-3.49;70.62;103234.56;5098137;28;20047;-66
2024/01/09 02:29:21;;;;;;;5.93;3.45;;;;;;;-3.44;70.32;103235.91;5093442;28;20480;-67
2024/01/09 02:32:09;;;;;;;7.53;3.90;;;;;;;-3.39;70.21;103232.03;5076396;28;20051;-67
2024/01/09 02:34:58;;;;;;;7.13;3.97;;;;;;;-3.50;70.21;103232.88;5077152;28;20131;-67
2024/01/09 02:37:46;;;;;;;5.40;3.47;;;;;;;-3.60;70.52;103230.03;5078028;28;20055;-68
2024/01/09 02:40:34;;;;;;;6.82;3.97;;;;;;;-3.51;70.54;103232.03;5098787;28;20044;-67
2024/01/09 02:43:22;;;;;;;7.10;4.00;;;;;;;-3.46;70.54;103221.84;5112088;28;20044;-67
2024/01/09 02:46:10;;;;;;;5.97;3.50;;;;;;;-3.53;70.06;103219.78;5113753;28;20108;-67
2024/01/09 02:48:58;;;;;;;6.60;3.72;;;;;;;-3.54;70.87;103212.72;5099218;27;20070;-67
2024/01/09 02:51:46;;;;;;;5.80;3.45;;;;;;;-3.45;70.50;103217.38;5125766;27;20054;-68
2024/01/09 02:54:34;;;;;;;6.70;3.92;;;;;;;-3.50;70.14;103217.72;5108804;28;20040;-66
2024/01/09 02:57:22;;;;;;;7.13;4.25;;;;;;;-3.58;70.62;103221.91;5132174;27;20521;-66
2024/01/09 03:00:11;;;;;;;7.32;4.00;;;;;;;-3.59;70.87;103231.72;5102770;28;20039;-67
2024/01/09 03:02:59;;;;;;;7.25;3.78;;;;;;;-3.66;71.37;103222.50;5110438;28;20039;-67
2024/01/09 03:05:47;;;;;;;6.13;3.60;;;;;;;-3.71;71.31;103212.19;5083720;28;20083;-66
2024/01/09 03:08:35;;;;;;;6.65;3.90;;;;;;;-3.71;71.14;103219.31;5131126;28;20188;-68
2024/01/09 03:11:23;;;;;;;5.32;3.42;;;;;;;-3.74;71.09;103209.75;5104229;28;20040;-68
2024/01/09 03:14:12;;;;;;;4.55;3.13;;;;;;;-3.74;71.75;103214.25;5063161;28;20048;-67
2024/01/09 03:17:00;;;;;;;7.55;3.65;;;;;;;-3.72;72.34;103212.31;5064542;28;20185;-68
2024/01/09 03:19:48;;;;;;;6.50;3.53;;;;;;;-3.74;72.09;103217.75;5100045;28;20197;-68
2024/01/09 03:22:36;;;;;;;6.72;3.70;;;;;;;-3.69;71.73;103214.75;5078958;28;20050;-67
2024/01/09 03:25:26;;;;;;;7.53;3.92;;;;;;;-3.71;71.16;103216.66;5077177;28;20127;-67
2024/01/09 03:28:14;;;;;;;7.90;4.05;;;;;;;-3.75;72.13;103216.06;5095913;28;20039;-66
2024/01/09 03:31:02;;;;;;;6.72;3.65;;;;;;;-3.72;71.62;103214.97;5112499;28;20059;-67
2024/01/09 03:33:50;;;;;;;6.30;3.65;;;;;;;-3.58;71.95;103222.78;5081289;28;20055;-66
2024/01/09 03:36:38;;;;;;;8.48;4.00;;;;;;;-3.56;70.82;103220.88;5097815;28;20055;-66
2024/01/09 03:39:26;;;;;;;6.28;3.80;;;;;;;-3.63;71.84;103224.94;5113716;28;20093;-66
2024/01/09 03:42:14;;;;;;;7.18;4.15;;;;;;;-3.60;70.59;103224.72;5096747;28;20496;-67
2024/01/09 03:45:02;;;;;;;6.75;3.78;;;;;;;-3.62;70.87;103218.66;5096595;28;20465;-68
2024/01/09 03:47:51;;;;;;;6.47;3.50;;;;;;;-3.65;71.04;103208.22;5105705;28;20040;-67
2024/01/09 03:50:39;;;;;;;6.72;3.85;;;;;;;-3.60;70.65;103202.56;5108470;28;20103;-67
2024/01/09 03:53:27;;;;;;;6.28;3.97;;;;;;;-3.57;70.72;103223.63;5096968;28;20039;-67
2024/01/09 03:56:15;;;;;;;6.40;3.65;;;;;;;-3.59;71.17;103215.75;5096858;28;20499;-67
2024/01/09 03:59:03;;;;;;;8.57;4.20;;;;;;;-3.54;71.16;103208.25;5068391;28;20044;-67
2024/01/09 04:01:51;;;;;;;6.43;3.88;;;;;;;-3.68;70.97;103211.09;5076483;28;20050;-67
2024/01/09 04:04:39;;;;;;;7.95;3.95;;;;;;;-3.86;71.97;103203.53;5063490;28;20416;-67
2024/01/09 04:07:27;;;;;;;5.90;3.92;;;;;;;-3.83;72.38;103212.25;5092574;28;20403;-67
2024/01/09 04:10:15;;;;;;;6.38;3.97;;;;;;;-3.82;71.57;103212.16;5099573;27;20085;-68
2024/01/09 04:13:03;;;;;;;6.95;3.70;;;;;;;-3.88;72.05;103204.59;5104579;27;20043;-68
2024/01/09 04:15:51;;;;;;;6.57;3.95;;;;;;;-3.87;72.59;103201.84;5086322;28;20147;-67
2024/01/09 04:18:39;;;;;;;7.13;3.90;;;;;;;-3.81;72.29;103199.69;5087253;28;20521;-72
2024/01/09 04:21:27;;;;;;;6.70;3.90;;;;;;;-3.92;72.36;103204.00;5081344;28;20051;-67
2024/01/09 04:24:15;;;;;;;5.97;3.60;;;;;;;-3.92;72.50;103197.81;5067452;28;20079;-67
2024/01/09 04:27:03;;;;;;;6.55;3.63;;;;;;;-3.89;72.22;103195.78;5079661;28;20188;-67
2024/01/09 04:29:51;;;;;;;6.90;3.80;;;;;;;-3.84;72.46;103191.94;5058285;27;20058;-66
2024/01/09 04:32:39;;;;;;;7.68;3.83;;;;;;;-3.88;72.33;103205.44;5114617;28;20561;-66
2024/01/09 04:35:27;;;;;;;6.82;3.65;;;;;;;-3.87;72.55;103201.84;5127065;27;20039;-66
2024/01/09 04:38:15;;;;;;;6.28;3.80;;;;;;;-3.85;72.75;103201.72;5135781;27;20065;-67
2024/01/09 04:41:03;;;;;;;6.40;3.58;;;;;;;-3.89;73.12;103193.09;5100351;27;20051;-67
2024/01/09 04:43:51;;;;;;;8.27;4.25;;;;;;;-3.87;71.97;103195.66;5117893;27;20050;-67
2024/01/09 04:46:40;;;;;;;6.88;3.88;;;;;;;-3.82;72.79;103193.50;5099420;28;20047;-67
2024/01/09 04:49:27;;;;;;;7.25;3.67;;;;;;;-3.81;72.30;103200.53;5114080;28;20499;-66
2024/01/09 04:52:16;;;;;;;6.40;3.97;;;;;;;-3.98;72.86;103188.47;5115011;28;20071;-66
2024/01/09 04:55:04;;;;;;;6.65;3.80;;;;;;;-3.97;73.48;103202.63;5099466;28;20101;-67
2024/01/09 04:57:52;;;;;;;6.45;3.85;;;;;;;-3.92;73.11;103200.47;5099524;28;20044;-66
2024/01/09 05:00:40;;;;;;;8.15;3.80;;;;;;;-3.95;72.49;103193.56;5108607;27;20047;-67
2024/01/09 05:03:28;;;;;;;6.22;3.50;;;;;;;-3.90;73.45;103202.03;5121908;27;20494;-67
2024/01/09 05:06:17;;;;;;;5.85;3.80;;;;;;;-3.86;73.07;103195.53;5120250;27;20525;-67
2024/01/09 05:09:05;;;;;;;8.55;4.35;;;;;;;-3.80;73.35;103199.56;5100329;28;20073;-67
2024/01/09 05:11:53;;;;;;;6.65;3.75;;;;;;;-3.84;73.27;103199.91;5115875;27;20516;-67
2024/01/09 05:14:42;;;;;;;7.78;3.92;;;;;;;-3.88;73.51;103192.13;5101000;28;20051;-67
2024/01/09 05:17:30;;;;;;;6.63;3.80;;;;;;;-3.93;73.61;103185.47;5114183;28;20047;-69
2024/01/09 05:20:18;;;;;;;7.05;4.10;;;;;;;-4.18;74.01;103197.94;5105048;27;20117;-67
2024/01/09 05:23:06;;;;;;;8.82;4.32;;;;;;;-4.31;75.55;103187.31;5115973;28;20044;-67
2024/01/09 05:25:54;;;;;;;7.90;4.30;;;;;;;-4.31;75.46;103203.28;5114394;28;20085;-67
2024/01/09 05:28:42;;;;;;;8.40;4.53;;;;;;;-4.20;75.77;103193.69;5100210;28;20442;-68
2024/01/09 05:31:30;;;;;;;7.55;4.20;;;;;;;-4.03;76.24;103195.94;5094278;28;20058;-72
2024/01/09 05:34:18;;;;;;;8.48;4.43;;;;;;;-4.07;74.35;103200.63;5080663;28;20044;-68
2024/01/09 05:37:06;;;;;;;7.78;4.53;;;;;;;-4.00;74.62;103201.03;5078107;28;20040;-68
2024/01/09 05:39:54;;;;;;;6.55;3.97;;;;;;;-4.10;75.48;103205.34;5078545;28;20040;-68
2024/01/09 05:42:43;;;;;;;7.28;4.20;;;;;;;-4.09;75.94;103196.38;5093242;28;20090;-68
2024/01/09 05:45:31;;;;;;;8.82;4.40;;;;;;;-4.14;75.73;103203.84;5090847;28;20404;-69
2024/01/09 05:48:19;;;;;;;6.90;4.15;;;;;;;-4.16;76.51;103200.47;5074205;28;20412;-70
2024/01/09 05:51:09;;;;;;;7.07;3.85;;;;;;;-4.09;76.12;103201.72;5074178;28;20127;-68
2024/01/09 05:53:57;;;;;;;7.82;4.35;;;;;;;-4.03;75.60;103201.28;5044278;28;20045;-67
2024/01/09 05:56:45;;;;;;;8.30;4.32;;;;;;;-4.14;76.80;103193.22;5065365;28;20146;-68
2024/01/09 05:59:33;;;;;;;7.13;4.35;;;;;;;-4.22;76.27;103198.25;5089889;28;20044;-67
2024/01/09 06:02:26;;;;;;;9.65;4.70;;;;;;;-4.39;77.35;103200.31;5078658;28;20040;-66
2024/01/09 06:05:14;;;;;;;7.32;4.10;;;;;;;-4.37;77.50;103195.75;5078205;28;20044;-68
2024/01/09 06:08:02;;;;;;;7.43;4.45;;;;;;;-4.24;76.46;103197.50;5078195;28;20050;-68
2024/01/09 06:10:50;;;;;;;10.00;4.97;;;;;;;-4.33;76.50;103183.94;5091486;28;20040;-68
2024/01/09 06:13:38;;;;;;;8.57;4.63;;;;;;;-4.36;77.56;103185.94;5091640;28;20048;-70
2024/01/09 06:16:26;;;;;;;6.65;3.95;;;;;;;-4.33;76.91;103189.25;5071597;28;20059;-68
2024/01/09 06:19:14;;;;;;;7.95;4.60;;;;;;;-4.35;76.91;103193.84;5060547;28;20193;-67
2024/01/09 06:22:02;;;;;;;8.10;4.55;;;;;;;-4.37;77.44;103201.06;5100042;28;20511;-68
2024/01/09 06:24:50;;;;;;;10.05;4.80;;;;;;;-4.41;78.90;103202.25;5098238;28;20050;-68
2024/01/09 06:27:38;;;;;;;6.57;3.95;;;;;;;-4.47;79.08;103197.38;5090201;28;20051;-68
2024/01/09 06:30:26;;;;;;;8.65;4.68;;;;;;;-4.48;77.96;103200.97;5091446;28;20084;-68
2024/01/09 06:33:14;;;;;;;8.32;4.97;;;;;;;-4.39;79.08;103200.31;5087868;28;20048;-69
2024/01/09 06:36:02;;;;;;;9.98;6.00;;;;;;;-4.31;78.51;103205.09;5105268;28;20044;-68
2024/01/09 06:38:50;;;;;;;9.00;5.30;;;;;;;-4.39;77.11;103210.97;5115306;28;20699;-68
2024/01/09 06:41:39;;;;;;;10.88;5.43;;;;;;;-4.46;78.30;103214.19;5099172;28;20047;-69
2024/01/09 06:44:27;;;;;;;9.30;5.10;;;;;;;-4.40;78.18;103217.25;5124242;28;20056;-67
2024/01/09 06:47:15;;;;;;;9.82;4.82;;;;;;;-4.26;77.33;103220.72;5128624;28;20036;-68
2024/01/09 06:50:03;;;;;;;8.02;4.75;;;;;;;-4.20;77.47;103225.63;5079050;28;20048;-69
2024/01/09 06:52:58;;;;;;;8.15;4.63;;;;;;;-4.30;76.24;103226.28;5108259;28;20047;-66
2024/01/09 06:55:45;;;;;;;8.20;4.63;;;;;;;-4.37;76.99;103224.19;5112055;28;20044;-68
2024/01/09 06:58:34;;;;;;;10.75;4.78;;;;;;;-4.35;77.55;103231.09;5109171;28;20043;-67
2024/01/09 07:01:23;;;;;;;9.13;5.03;;;;;;;-4.24;78.12;103224.13;5081912;28;20535;-66
2024/01/09 07:04:11;;;;;;;9.23;4.88;;;;;;;-4.25;77.13;103217.13;5111041;28;20031;-67
2024/01/09 07:06:59;;;;;;;8.55;4.85;;;;;;;-4.61;78.31;103232.94;5097947;28;20047;-67
2024/01/09 07:09:47;;;;;;;10.95;5.35;;;;;;;-4.57;79.08;103233.56;5096717;28;20051;-66
2024/01/09 07:12:35;;;;;;;9.60;5.35;;;;;;;-4.54;77.38;103230.69;5109903;28;20040;-65
2024/01/09 07:15:23;;;;;;;8.13;4.65;;;;;;;-4.57;79.09;103229.13;5111086;28;20078;-67
2024/01/09 07:18:12;;;;;;;9.52;5.25;;;;;;;-4.54;79.11;103236.03;5112194;28;20051;-66
2024/01/09 07:21:00;;;;;;;8.98;5.25;;;;;;;-4.56;78.42;103229.97;5097178;28;20518;-67
2024/01/09 07:23:48;;;;;;;8.20;5.03;;;;;;;-4.62;78.84;103236.53;4394025;28;10000706;-66
2024/01/09 07:26:40;;;;;;;9.60;5.43;;;;;;;-4.69;78.65;103235.28;5094628;28;20046;-68
2024/01/09 07:29:28;;;;;;;8.18;4.70;;;;;;;-4.68;79.08;103233.50;5092009;28;20035;-69
2024/01/09 07:32:16;;;;;;;8.63;5.07;;;;;;;-4.65;79.02;103242.09;5094880;28;20534;-71
2024/01/09 07:35:07;;;;;;;10.18;5.45;;;;;;;-4.72;79.82;103235.50;5117947;28;20040;-67
2024/01/09 07:37:55;;;;;;;8.93;5.50;;;;;;;-4.72;79.58;103246.97;5108306;28;20115;-67
2024/01/09 07:40:43;;;;;;;9.75;5.20;;;;;;;-4.78;80.88;103252.75;5107145;28;20051;-68
2024/01/09 07:43:31;;;;;;;9.18;5.50;;;;;;;-4.65;81.46;103252.72;5096704;28;20043;-67
2024/01/09 07:46:19;;;;;;;9.23;5.00;;;;;;;-4.52;80.46;103253.56;5097228;28;20127;-66
2024/01/09 07:49:07;;;;;;;9.73;4.88;;;;;;;-4.45;81.10;103261.94;5117172;27;20174;-67
2024/01/09 07:51:55;;;;;;;9.13;4.82;;;;;;;-4.52;80.27;103250.91;5112197;28;20043;-67
2024/01/09 07:54:43;;;;;;;7.72;4.72;;;;;;;-4.52;80.67;103247.41;5112730;28;20539;-68
2024/01/09 07:57:33;;;;;;;9.20;5.60;;;;;;;-4.58;81.72;103258.47;5072304;27;20522;-69
2024/01/09 08:00:21;;;;;;;11.50;5.97;;;;;;;-4.53;81.03;103264.31;5135797;27;20464;-67
2024/01/09 08:03:09;;;;;;;9.88;5.82;;;;;;;-4.64;80.65;103266.88;5106949;27;20096;-66
2024/01/09 08:05:57;;;;;;;10.25;5.68;;;;;;;-4.85;81.69;103261.25;5121140;27;20062;-68
2024/01/09 08:08:45;;;;;;;8.98;5.15;;;;;;;-4.87;81.60;103269.34;5105225;27;20518;-67
2024/01/09 08:11:37;;;;;;;8.93;5.35;;;;;;;-4.94;81.96;103268.06;5136372;27;20044;-66
2024/01/09 08:14:25;;;;;;;10.48;5.60;;;;;;;-5.02;82.79;103267.75;5133166;27;20035;-66
2024/01/09 08:17:14;;;;;;;8.93;5.47;;;;;;;-4.97;84.61;103268.28;5099738;27;20533;-66
2024/01/09 08:20:03;;;;;;;10.35;5.75;;;;;;;-4.79;82.75;103272.31;5100845;28;20055;-67
2024/01/09 08:22:51;;;;;;;9.85;5.22;;;;;;;-4.76;82.93;103277.44;5103681;27;20389;-67
2024/01/09 08:25:39;;;;;;;12.68;6.28;;;;;;;-4.70;82.06;103278.81;5115470;28;20077;-67
2024/01/09 08:28:27;;;;;;;9.43;5.22;;;;;;;-4.64;80.71;103275.72;5101509;28;20054;-68
2024/01/09 08:31:16;;;;;;;10.95;6.35;;;;;;;-4.72;81.50;103270.06;5105061;28;20095;-67
2024/01/09 08:34:05;;;;;;;9.10;5.38;;;;;;;-4.64;81.82;103275.72;5115175;28;20059;-67
2024/01/09 08:36:54;;;;;;;9.90;5.53;;;;;;;-4.61;81.32;103272.00;5082764;27;20137;-67
2024/01/09 08:39:44;;;;;;;10.00;5.72;;;;;;;-4.69;80.23;103279.66;5112662;28;20115;-73
2024/01/09 08:42:32;;;;;;;10.18;6.07;;;;;;;-4.72;80.71;103289.53;5096570;28;20142;-67
2024/01/09 08:45:21;;;;;;;10.63;5.60;;;;;;;-4.68;80.85;103290.19;5087271;28;20105;-72
2024/01/09 08:48:09;;;;;;;10.40;5.70;;;;;;;-4.63;81.17;103292.53;5103175;27;20039;-69
2024/01/09 08:50:57;;;;;;;13.02;5.53;;;;;;;-4.52;81.07;103289.97;5113385;28;20059;-67
2024/01/09 08:53:46;;;;;;;9.15;5.55;;;;;;;-4.54;79.27;103289.22;5114906;28;20046;-70
2024/01/09 08:56:34;;;;;;;9.57;5.82;;;;;;;-4.52;79.84;103285.50;5081825;27;20051;-69
2024/01/09 08:59:22;;;;;;;9.65;5.93;;;;;;;-4.53;79.49;103293.59;5120575;27;20047;-69
2024/01/09 09:02:10;;;;;;;12.90;6.00;;;;;;;-4.52;80.59;103297.97;5124548;27;20483;-66
2024/01/09 09:04:58;;;;;;;9.98;6.00;;;;;;;-4.42;79.57;103295.50;5133208;27;20115;-70
2024/01/09 09:07:46;;;;;;;10.57;6.18;;;;;;;-4.38;78.21;103292.50;5104772;27;20045;-68
2024/01/09 09:10:34;;;;;;;11.15;5.97;;;;;;;-4.39;79.74;103297.94;5116648;27;20047;-69
2024/01/09 09:13:22;;;;;;;10.65;6.53;;;;;;;-4.31;78.63;103306.22;5076721;28;20044;-67
2024/01/09 09:16:10;;;;;;;11.00;6.32;;;;;;;-4.29;78.19;103304.31;5094171;27;20075;-67
2024/01/09 09:18:58;;;;;;;10.32;6.07;;;;;;;-4.43;78.01;103304.44;5092948;28;20131;-69
2024/01/09 09:21:46;;;;;;;10.02;6.15;;;;;;;-4.40;78.45;103305.06;5064497;28;20102;-67
2024/01/09 09:24:34;;;;;;;9.73;6.45;;;;;;;-4.39;78.09;103305.91;5109458;28;20517;-68
2024/01/09 09:27:22;;;;;;;15.15;6.93;;;;;;;-4.47;78.46;103303.81;5104729;27;20039;-70
2024/01/09 09:30:11;;;;;;;10.50;6.78;;;;;;;-4.55;77.56;103301.66;5106557;27;20197;-68
2024/01/09 09:32:59;;;;;;;11.05;6.60;;;;;;;-4.40;77.59;103302.41;5077285;28;20126;-67
2024/01/09 09:35:47;;;;;;;10.68;6.55;;;;;;;-4.35;77.51;103302.94;5093636;28;20123;-67
2024/01/09 09:38:36;;;;;;;13.15;7.43;;;;;;;-4.54;77.30;103295.41;5093842;28;20044;-66
2024/01/09 09:41:24;;;;;;;12.10;6.72;;;;;;;-4.51;77.15;103297.00;5092724;28;20457;-67
2024/01/09 09:44:15;;;;;;;14.52;7.03;;;;;;;-4.39;77.16;103300.59;5076761;28;20071;-67
2024/01/09 09:47:03;;;;;;;10.85;6.47;;;;;;;-4.28;76.04;103304.22;5100604;27;20103;-70
2024/01/09 09:49:52;;;;;;;11.68;6.57;;;;;;;-4.25;75.44;103302.28;5098598;28;20574;-68
2024/01/09 09:52:41;;;;;;;10.55;6.13;;;;;;;-4.25;75.98;103297.81;5098096;28;20051;-67
2024/01/09 09:55:29;;;;;;;15.90;7.18;;;;;;;-4.21;75.52;103299.31;5097660;28;20058;-71
2024/01/09 09:58:17;;;;;;;11.07;5.93;;;;;;;-4.33;75.58;103309.00;5051762;28;20091;-70
2024/01/09 10:01:10;;;;;;;11.27;6.90;;;;;;;-4.29;75.15;103307.81;5065226;28;20106;-70
2024/01/09 10:04:17;;;;;;;11.88;6.65;;;;;;;-4.19;74.24;103309.81;5063403;28;20055;-68
2024/01/09 10:07:07;;;;;;;12.18;6.40;;;;;;;-4.18;74.06;103311.53;5100727;28;20131;-68
2024/01/09 10:09:56;;;;;;;10.55;6.22;;;;;;;-4.17;72.74;103290.13;5071424;28;20080;-68
2024/01/09 10:12:44;;;;;;;12.18;6.43;;;;;;;-4.03;74.47;103286.47;5099355;28;20100;-67
2024/01/09 10:15:33;;;;;;;13.38;7.30;;;;;;;-4.06;72.14;103292.03;5112036;27;20502;-71
2024/01/09 10:18:21;;;;;;;10.85;6.75;;;;;;;-4.04;71.40;103284.78;5098858;28;20055;-69
2024/01/09 10:21:10;;;;;;;10.32;6.82;;;;;;;-4.08;71.88;103285.97;5113802;28;20044;-69
2024/01/09 10:23:58;;;;;;;10.57;6.57;;;;;;;-4.14;72.43;103281.06;5084429;28;20201;-70
2024/01/09 10:26:46;;;;;;;11.05;6.88;;;;;;;-4.22;71.66;103275.44;5087486;28;20503;-70
2024/01/09 10:29:38;;;;;;;12.13;7.18;;;;;;;-4.21;72.13;103282.47;5083203;28;20185;-68
2024/01/09 10:32:26;;;;;;;10.68;6.40;;;;;;;-4.08;72.74;103272.66;5087184;28;20565;-69
2024/01/09 10:35:15;;;;;;;11.57;6.40;;;;;;;-3.94;70.45;103269.84;5097429;27;20119;-70
2024/01/09 10:38:03;;;;;;;10.40;6.13;;;;;;;-3.88;68.99;103279.19;5113556;28;20047;-69
2024/01/09 10:40:57;;;;;;;11.98;6.35;;;;;;;-3.81;69.85;103269.78;5113156;28;20036;-70
2024/01/09 10:43:49;;;;;;;10.63;6.20;;;;;;;-3.71;71.61;103261.94;5097440;28;20040;-71
2024/01/09 10:46:37;;;;;;;10.73;6.47;;;;;;;-3.46;69.10;103248.50;5083026;27;20045;-68
2024/01/09 10:49:26;;;;;;;9.85;6.03;;;;;;;-3.60;67.09;103261.16;5103946;27;20046;-69
2024/01/09 10:52:16;;;;;;;13.10;6.78;;;;;;;-3.67;67.27;103250.13;5133682;27;20043;-69
2024/01/09 10:55:06;;;;;;;11.70;5.90;;;;;;;-3.58;67.13;103251.22;5093225;28;20531;-68
2024/01/09 10:57:54;;;;;;;10.30;6.10;;;;;;;-3.58;66.24;103243.22;5083604;28;20047;-68
2024/01/09 11:00:42;;;;;;;10.52;6.15;;;;;;;-3.59;66.24;103237.06;5131002;28;20043;-70
2024/01/09 11:03:30;;;;;;;10.82;6.07;;;;;;;-3.50;66.40;103236.38;5125301;28;20044;-68
2024/01/09 11:06:21;;;;;;;10.30;6.03;;;;;;;-3.32;67.85;103219.94;5071768;28;20031;-67
2024/01/09 11:09:11;;;;;;;11.07;6.35;;;;;;;-3.09;65.50;103224.38;5078348;28;20059;-69
2024/01/09 11:11:59;;;;;;;10.35;5.80;;;;;;;-3.21;64.95;103227.97;5082050;28;20040;-68
2024/01/09 11:14:50;;;;;;;9.40;5.80;;;;;;;-3.25;63.63;103219.38;5108499;28;20046;-70
2024/01/09 11:17:39;;;;;;;10.38;5.68;;;;;;;-3.27;63.76;103225.75;5105830;27;20043;-68
2024/01/09 11:20:28;;;;;;;9.55;5.60;;;;;;;-3.22;63.92;103223.63;5106966;28;20068;-68
2024/01/09 11:23:51;;;;;;;9.52;6.13;;;;;;;-3.20;62.56;103221.66;5087572;28;20449;-69
2024/01/09 11:26:42;;;;;;;11.20;5.83;;;;;;;-3.10;61.26;103228.00;4751163;27;10001227;-72
2024/01/09 11:29:53;;;;;;;10.10;5.90;;;;;;;-3.01;61.30;103205.97;5097651;28;20559;-69
2024/01/09 11:32:41;;;;;;;9.45;4.60;;;;;;;-2.92;60.02;103200.88;5054368;28;20067;-71
2024/01/09 11:35:29;;;;;;;9.60;5.72;;;;;;;-2.90;59.76;103201.59;5081804;28;20040;-72
2024/01/09 11:38:18;;;;;;;10.48;5.40;;;;;;;-2.85;59.75;103194.94;5061306;28;20380;-69
2024/01/09 11:41:09;;;;;;;10.10;5.38;;;;;;;-2.79;58.94;103190.91;5047684;28;20464;-68
2024/01/09 11:44:06;;;;;;;11.38;5.18;;;;;;;-2.77;58.47;103186.31;5060863;28;20051;-68
2024/01/09 11:46:54;;;;;;;10.43;5.60;;;;;;;-2.80;57.85;103178.56;5097773;28;20046;-68
2024/01/09 11:49:43;;;;;;;8.95;5.13;;;;;;;-2.68;56.99;103174.91;5067958;28;20051;-69
2024/01/09 11:52:32;;;;;;;9.57;5.20;;;;;;;-2.63;57.31;103171.88;5101924;28;20479;-68
2024/01/09 11:55:20;;;;;;;10.18;5.95;;;;;;;-2.58;56.15;103169.69;5113590;28;20050;-69
2024/01/09 11:58:08;;;;;;;9.07;5.20;;;;;;;-2.57;56.25;103163.41;5055547;28;20122;-68
2024/01/09 12:00:56;;;;;;;8.60;4.68;;;;;;;-2.50;56.58;103161.06;5079384;28;20052;-69
2024/01/09 12:03:51;;;;;;;9.95;5.00;;;;;;;-2.43;54.90;103152.44;5080597;28;20040;-68
2024/01/09 12:06:39;;;;;;;9.27;5.40;;;;;;;-2.37;54.32;103153.75;5068620;28;20071;-68
2024/01/09 12:09:31;;;;;;;10.45;5.40;;;;;;;-2.33;53.18;103155.22;5068574;28;20044;-67
2024/01/09 12:12:22;;;;;;;9.05;5.10;;;;;;;-2.30;52.09;103154.97;5093442;28;20044;-67
2024/01/09 12:15:19;;;;;;;10.38;5.05;;;;;;;-2.28;52.59;103145.00;5079624;28;20051;-68
2024/01/09 12:18:07;;;;;;;8.55;4.65;;;;;;;-2.25;52.74;103147.41;5096082;28;20044;-68
2024/01/09 12:20:55;;;;;;;10.25;5.30;;;;;;;-2.16;52.80;103143.16;5094777;28;20042;-68
2024/01/09 12:23:44;;;;;;;8.95;5.32;;;;;;;-2.15;50.96;103139.50;5080055;28;20090;-69
2024/01/09 12:26:53;;;;;;;9.50;5.28;;;;;;;-2.18;50.04;103145.94;5060120;28;20040;-69
2024/01/09 12:29:42;;;;;;;9.43;5.43;;;;;;;-2.13;50.25;103136.72;5090277;28;20052;-69
2024/01/09 12:32:31;;;;;;;7.68;4.53;;;;;;;-2.05;50.79;103134.25;5112433;28;20395;-67
2024/01/09 12:35:19;;;;;;;10.18;5.13;;;;;;;-2.02;49.00;103123.28;5125981;28;20050;-67
2024/01/09 12:38:07;;;;;;;8.93;5.20;;;;;;;-2.01;48.27;103128.50;5066494;28;20048;-69
2024/01/09 12:41:04;;;;;;;8.25;4.80;;;;;;;-2.00;48.26;103129.34;5098769;28;20491;-69
2024/01/09 12:43:52;;;;;;;8.30;5.07;;;;;;;-2.00;48.30;103121.34;5114500;28;20039;-68
2024/01/09 12:46:44;;;;;;;9.55;4.80;;;;;;;-1.98;47.83;103119.41;5115549;28;20051;-67
2024/01/09 12:49:41;;;;;;;9.07;4.93;;;;;;;-1.95;47.96;103112.00;5120137;28;20125;-68
2024/01/09 12:52:49;;;;;;;8.48;4.38;;;;;;;-1.82;48.25;103105.59;5116950;28;20496;-68
2024/01/09 12:55:37;;;;;;;7.85;4.75;;;;;;;-1.81;48.52;103104.63;5112859;28;20040;-68
2024/01/09 12:58:25;;;;;;;10.10;4.55;;;;;;;-1.75;47.95;103102.28;5126576;28;20107;-67
2024/01/09 13:01:14;;;;;;;9.05;4.55;;;;;;;-1.72;48.57;103093.16;5127185;28;20401;-69